createdAt,value
2023-05-16T00:00:53.486Z,16.02
2023-05-16T00:03:22.268Z,16.27
2023-05-16T00:05:50.899Z,15.85
2023-05-16T00:08:19.683Z,16.55
2023-05-16T00:10:48.927Z,16.10
2023-05-16T00:13:19.337Z,17.48
2023-05-16T00:15:47.908Z,16.12
2023-05-16T00:18:17.147Z,17.42
2023-05-16T00:20:46.073Z,16.70
2023-05-16T00:23:14.678Z,16.10
2023-05-16T00:25:45.005Z,16.17
2023-05-16T00:28:13.682Z,16.87
2023-05-16T00:30:42.305Z,17.45
2023-05-16T00:33:15.265Z,17.55
2023-05-16T00:38:45.797Z,19.25
2023-05-16T00:41:17.681Z,18.05
2023-05-16T00:43:46.290Z,16.93
2023-05-16T00:46:16.689Z,16.95
2023-05-16T00:48:56.270Z,15.78
2023-05-16T00:54:48.792Z,17.48
2023-05-16T01:00:20.089Z,19.42
2023-05-16T01:02:49.588Z,15.15
2023-05-16T01:05:18.843Z,16.50
2023-05-16T01:07:53.687Z,17.60
2023-05-16T01:10:27.836Z,16.35
2023-05-16T01:13:40.582Z,16.30
2023-05-16T01:16:30.328Z,15.75
2023-05-16T01:19:11.342Z,16.05
2023-05-16T01:21:43.788Z,16.67
2023-05-16T01:24:26.950Z,16.32
2023-05-16T01:26:57.310Z,16.25
2023-05-16T01:29:26.971Z,17.40
2023-05-16T01:31:55.745Z,16.05
2023-05-16T01:34:24.606Z,15.93
2023-05-16T01:37:18.906Z,15.75
2023-05-16T01:39:50.719Z,14.10
2023-05-16T01:42:25.917Z,15.83
2023-05-16T01:45:10.879Z,13.90
2023-05-16T01:47:42.861Z,14.25
2023-05-16T01:50:18.702Z,13.65
2023-05-16T01:52:53.168Z,13.80
2023-05-16T01:55:40.454Z,13.65
2023-05-16T01:58:14.082Z,13.70
2023-05-16T02:00:43.899Z,13.85
2023-05-16T02:03:12.959Z,13.70
2023-05-16T02:05:41.699Z,13.20
2023-05-16T02:08:10.669Z,13.32
2023-05-16T02:10:44.337Z,14.85
2023-05-16T02:13:13.098Z,15.48
2023-05-16T02:15:44.873Z,15.05
2023-05-16T02:18:16.983Z,13.90
2023-05-16T02:20:47.219Z,13.95
2023-05-16T02:23:16.074Z,14.30
2023-05-16T02:25:44.891Z,14.10
2023-05-16T02:28:13.651Z,14.23
2023-05-16T02:30:42.524Z,14.70
2023-05-16T02:33:12.316Z,13.85
2023-05-16T02:35:41.140Z,15.18
2023-05-16T02:38:09.817Z,13.78
2023-05-16T02:40:41.662Z,13.62
2023-05-16T02:43:10.316Z,13.62
2023-05-16T02:45:40.038Z,14.03
2023-05-16T02:48:09.083Z,13.93
2023-05-16T02:50:39.708Z,15.30
2023-05-16T02:53:08.376Z,13.22
2023-05-16T02:55:37.306Z,13.40
2023-05-16T02:58:06.272Z,12.20
2023-05-16T03:00:39.472Z,11.20
2023-05-16T03:03:11.267Z,12.37
2023-05-16T03:05:40.301Z,12.70
2023-05-16T03:08:08.890Z,11.78
2023-05-16T03:10:37.529Z,11.50
2023-05-16T03:13:06.270Z,12.65
2023-05-16T03:15:34.860Z,11.60
2023-05-16T03:18:04.176Z,11.53
2023-05-16T03:20:32.984Z,11.90
2023-05-16T03:23:01.729Z,12.03
2023-05-16T03:25:30.437Z,12.07
2023-05-16T03:27:59.055Z,10.93
2023-05-16T03:30:27.976Z,12.40
2023-05-16T03:32:57.126Z,12.93
2023-05-16T03:35:28.100Z,11.95
2023-05-16T03:37:57.039Z,11.55
2023-05-16T03:40:25.685Z,13.08
2023-05-16T03:42:54.369Z,12.68
2023-05-16T03:45:22.920Z,13.18
2023-05-16T03:47:51.601Z,12.78
2023-05-16T03:50:20.354Z,13.75
2023-05-16T03:52:49.209Z,12.90
2023-05-16T03:55:17.961Z,12.73
2023-05-16T03:57:47.851Z,12.85
2023-05-16T04:00:17.270Z,13.38
2023-05-16T04:02:46.121Z,13.50
2023-05-16T04:05:14.871Z,13.10
2023-05-16T04:07:46.056Z,13.35
2023-05-16T04:10:17.801Z,12.98
2023-05-16T04:12:49.926Z,13.85
2023-05-16T04:15:20.031Z,14.15
2023-05-16T04:17:51.696Z,13.13
2023-05-16T04:20:20.409Z,14.13
2023-05-16T04:22:50.660Z,13.72
2023-05-16T04:25:20.888Z,13.62
2023-05-16T04:27:49.527Z,14.68
2023-05-16T04:30:19.729Z,13.88
2023-05-16T04:32:48.334Z,14.10
2023-05-16T04:35:17.037Z,13.98
2023-05-16T04:37:48.841Z,13.35
2023-05-16T04:40:17.672Z,13.98
2023-05-16T04:42:47.935Z,13.80
2023-05-16T04:45:16.758Z,13.70
2023-05-16T04:47:45.543Z,14.07
2023-05-16T04:50:15.053Z,13.98
2023-05-16T04:52:46.772Z,14.38
2023-05-16T04:55:16.160Z,15.55
2023-05-16T04:57:45.854Z,15.35
2023-05-16T05:00:19.527Z,14.38
2023-05-16T05:02:48.396Z,15.40
2023-05-16T05:05:17.164Z,14.55
2023-05-16T05:07:50.222Z,14.35
2023-05-16T05:10:18.978Z,15.00
2023-05-16T05:12:50.309Z,14.78
2023-05-16T05:15:19.350Z,15.15
2023-05-16T05:17:48.126Z,14.30
2023-05-16T05:20:18.070Z,14.45
2023-05-16T05:22:47.158Z,15.32
2023-05-16T05:25:18.044Z,15.55
2023-05-16T05:27:51.042Z,15.03
2023-05-16T05:30:22.777Z,15.00
2023-05-16T05:32:54.999Z,14.80
2023-05-16T05:35:23.724Z,14.50
2023-05-16T05:37:53.172Z,15.28
2023-05-16T05:46:37.211Z,14.87
2023-05-16T05:49:08.119Z,17.70
2023-05-16T05:51:36.855Z,14.38
2023-05-16T05:54:10.232Z,14.00
2023-05-16T05:56:42.189Z,15.18
2023-05-16T05:59:15.383Z,14.07
2023-05-16T06:01:49.097Z,14.33
2023-05-16T06:04:17.478Z,15.20
2023-05-16T06:06:50.021Z,14.83
2023-05-16T06:09:22.073Z,14.05
2023-05-16T06:11:54.767Z,14.28
2023-05-16T06:14:24.953Z,12.98
2023-05-16T06:16:53.741Z,13.22
2023-05-16T06:19:22.563Z,13.50
2023-05-16T06:21:56.399Z,12.50
2023-05-16T06:24:25.108Z,11.93
2023-05-16T06:26:53.758Z,12.98
2023-05-16T06:29:22.494Z,12.13
2023-05-16T06:32:03.015Z,12.95
2023-05-16T06:34:34.204Z,11.97
2023-05-16T06:37:07.215Z,11.97
2023-05-16T06:39:39.264Z,11.38
2023-05-16T06:42:08.056Z,13.93
2023-05-16T06:44:39.421Z,11.88
2023-05-16T06:47:08.261Z,12.93
2023-05-16T06:49:38.937Z,12.07
2023-05-16T06:52:07.859Z,11.53
2023-05-16T06:54:38.244Z,12.07
2023-05-16T06:57:08.671Z,12.43
2023-05-16T06:59:49.545Z,11.70
2023-05-16T07:02:18.603Z,12.37
2023-05-16T07:04:48.146Z,11.73
2023-05-16T07:07:16.866Z,12.43
2023-05-16T07:09:45.544Z,12.18
2023-05-16T07:12:14.232Z,11.10
2023-05-16T07:14:43.600Z,10.58
2023-05-16T07:17:33.457Z,10.63
2023-05-16T07:19:47.400Z,11.12
2023-05-16T07:22:17.818Z,10.00
2023-05-16T07:24:46.595Z,10.15
2023-05-16T07:27:34.017Z,9.60
2023-05-16T07:30:37.242Z,10.08
2023-05-16T07:33:05.365Z,10.20
2023-05-16T07:35:34.154Z,9.85
2023-05-16T07:38:19.407Z,10.53
2023-05-16T07:40:48.087Z,11.10
2023-05-16T07:43:21.785Z,12.15
2023-05-16T07:45:50.772Z,11.15
2023-05-16T07:48:32.147Z,10.48
2023-05-16T07:51:09.306Z,10.93
2023-05-16T07:53:54.382Z,12.70
2023-05-16T07:56:23.835Z,14.13
2023-05-16T07:58:55.101Z,21.60
2023-05-16T08:01:47.806Z,33.00
2023-05-16T08:04:28.650Z,21.00
2023-05-16T08:06:55.918Z,70.97
2023-05-16T08:09:30.136Z,26.62
2023-05-16T08:12:02.167Z,62.35
2023-05-16T08:14:37.126Z,30.75
2023-05-16T08:17:06.139Z,31.30
2023-05-16T08:19:34.859Z,10.50
2023-05-16T08:22:05.625Z,16.80
2023-05-16T08:24:36.026Z,35.80
2023-05-16T08:27:04.808Z,26.23
2023-05-16T08:29:33.537Z,49.00
2023-05-16T08:32:04.966Z,13.90
2023-05-16T08:34:36.109Z,12.60
2023-05-16T08:37:04.909Z,12.43
2023-05-16T08:39:33.723Z,10.72
2023-05-16T08:42:02.647Z,11.48
2023-05-16T08:45:11.569Z,12.80
2023-05-16T08:47:22.332Z,11.15
2023-05-16T08:49:53.081Z,10.45
2023-05-16T08:52:24.522Z,11.78
2023-05-16T08:55:09.174Z,11.15
2023-05-16T08:57:25.649Z,10.13
2023-05-16T08:59:55.606Z,9.53
2023-05-16T09:02:25.828Z,9.90
2023-05-16T09:04:55.748Z,9.70
2023-05-16T09:07:27.793Z,9.60
2023-05-16T09:09:56.676Z,8.70
2023-05-16T09:12:27.187Z,11.25
2023-05-16T09:15:00.636Z,9.75
2023-05-16T09:17:43.701Z,9.00
2023-05-16T09:20:29.471Z,9.98
2023-05-16T09:23:03.340Z,8.88
2023-05-16T09:25:34.295Z,19.42
2023-05-16T09:28:05.023Z,21.70
2023-05-16T09:30:37.146Z,30.75
2023-05-16T09:33:08.238Z,8.13
2023-05-16T09:35:43.876Z,22.77
2023-05-16T09:38:08.884Z,42.58
2023-05-16T09:40:40.799Z,16.90
2023-05-16T09:43:11.222Z,9.35
2023-05-16T09:45:44.826Z,69.75
2023-05-16T09:48:29.773Z,14.60
2023-05-16T09:51:03.112Z,32.80
2023-05-16T09:53:33.947Z,23.85
2023-05-16T09:56:25.282Z,40.92
2023-05-16T09:58:56.146Z,10.78
2023-05-16T10:01:25.583Z,8.65
2023-05-16T10:03:54.548Z,9.08
2023-05-16T10:06:25.134Z,8.20
2023-05-16T10:08:54.037Z,8.58
2023-05-16T10:11:23.024Z,8.93
2023-05-16T10:13:53.649Z,9.98
2023-05-16T10:16:24.246Z,8.73
2023-05-16T10:18:53.569Z,10.45
2023-05-16T10:21:25.124Z,8.58
2023-05-16T10:23:56.156Z,13.18
2023-05-16T10:26:26.786Z,28.60
2023-05-16T10:31:52.122Z,9.38
2023-05-16T10:34:22.291Z,11.10
2023-05-16T10:36:51.715Z,19.37
2023-05-16T10:39:21.903Z,10.20
2023-05-16T10:41:51.660Z,14.50
2023-05-16T10:44:20.866Z,8.93
2023-05-16T10:46:52.803Z,13.05
2023-05-16T10:49:30.385Z,8.78
2023-05-16T10:52:08.899Z,9.78
2023-05-16T10:54:45.920Z,8.65
2023-05-16T10:57:23.699Z,8.10
2023-05-16T10:59:53.969Z,19.35
2023-05-16T11:02:33.302Z,21.87
2023-05-16T11:05:03.727Z,28.80
2023-05-16T11:07:35.204Z,10.23
2023-05-16T11:10:12.460Z,15.13
2023-05-16T11:12:52.032Z,35.30
2023-05-16T11:15:29.547Z,25.50
2023-05-16T11:18:10.414Z,20.62
2023-05-16T11:20:41.288Z,19.05
2023-05-16T11:23:24.045Z,28.57
2023-05-16T11:25:58.540Z,11.90
2023-05-16T11:28:41.058Z,14.73
2023-05-16T11:31:10.959Z,10.48
2023-05-16T11:33:44.470Z,24.40
2023-05-16T11:36:17.447Z,15.05
2023-05-16T11:38:46.250Z,45.50
2023-05-16T11:41:16.840Z,12.05
2023-05-16T11:43:54.916Z,11.57
2023-05-16T12:00:32.401Z,15.10
2023-05-16T12:16:57.695Z,7.95
2023-05-16T12:19:26.728Z,11.08
2023-05-16T12:24:59.344Z,7.75
2023-05-16T12:27:41.069Z,8.23
2023-05-16T12:30:08.315Z,6.67
2023-05-16T12:32:42.478Z,8.05
2023-05-16T12:47:00.246Z,7.35
2023-05-16T12:49:31.373Z,7.60
2023-05-16T12:52:02.080Z,7.03
2023-05-16T12:54:31.765Z,7.90
2023-05-16T12:57:04.509Z,8.45
2023-05-16T13:02:50.952Z,8.13
2023-05-16T13:05:21.483Z,9.18
2023-05-16T13:07:56.242Z,8.90
2023-05-16T13:10:27.487Z,24.15
2023-05-16T13:12:58.161Z,9.43
2023-05-16T13:15:27.801Z,18.02
2023-05-16T13:17:57.454Z,26.93
2023-05-16T13:20:26.402Z,15.40
2023-05-16T13:22:56.167Z,8.95
2023-05-16T13:25:25.104Z,8.63
2023-05-16T13:27:54.027Z,8.25
2023-05-16T13:30:22.874Z,10.05
2023-05-16T13:32:53.492Z,8.30
2023-05-16T13:35:22.328Z,9.20
2023-05-16T13:37:55.905Z,8.58
2023-05-16T13:40:29.543Z,8.53
2023-05-16T13:43:01.766Z,9.18
2023-05-16T13:45:31.533Z,8.85
2023-05-16T13:48:02.063Z,9.25
2023-05-16T13:50:34.289Z,8.58
2023-05-16T13:53:04.434Z,8.90
2023-05-16T13:55:33.295Z,8.65
2023-05-16T13:58:02.711Z,8.73
2023-05-16T14:00:44.372Z,11.85
2023-05-16T14:03:19.920Z,8.53
2023-05-16T14:05:54.801Z,10.00
2023-05-16T14:08:25.315Z,10.48
2023-05-16T14:10:56.823Z,11.10
2023-05-16T14:13:25.618Z,9.65
2023-05-16T14:16:16.064Z,10.60
2023-05-16T14:18:46.495Z,11.50
2023-05-16T14:21:19.974Z,9.60
2023-05-16T14:24:07.592Z,10.00
2023-05-16T14:26:37.880Z,10.08
2023-05-16T14:29:26.884Z,12.78
2023-05-16T14:31:58.974Z,10.13
2023-05-16T14:34:30.276Z,14.45
2023-05-16T14:37:00.067Z,12.93
2023-05-16T14:39:31.042Z,12.95
2023-05-16T14:42:03.369Z,13.43
2023-05-16T14:44:43.311Z,12.60
2023-05-16T14:47:28.359Z,11.35
2023-05-16T14:49:48.635Z,23.50
2023-05-16T14:52:23.122Z,12.47
2023-05-16T14:54:52.312Z,14.75
2023-05-16T14:57:24.476Z,12.33
2023-05-16T14:59:54.611Z,13.88
2023-05-16T15:02:27.014Z,13.22
2023-05-16T15:04:58.057Z,108.10
2023-05-16T15:07:35.917Z,14.45
2023-05-16T15:10:10.217Z,17.40
2023-05-16T15:12:48.919Z,14.45
2023-05-16T15:15:17.907Z,13.85
2023-05-16T15:17:52.705Z,11.53
2023-05-16T15:20:23.924Z,15.72
2023-05-16T15:37:18.180Z,14.55
2023-05-16T15:39:59.249Z,13.98
2023-05-16T15:42:55.033Z,13.95
2023-05-16T15:45:24.215Z,21.30
2023-05-16T15:48:12.100Z,20.25
2023-05-16T15:50:38.262Z,25.27
2023-05-16T15:53:11.686Z,24.35
2023-05-16T15:58:56.071Z,12.43
2023-05-16T16:01:59.395Z,12.40
2023-05-16T16:04:33.143Z,13.43
2023-05-16T16:07:05.485Z,12.10
2023-05-16T16:12:31.861Z,11.43
2023-05-16T16:15:19.956Z,11.40
2023-05-16T16:17:52.076Z,12.13
2023-05-16T16:20:24.579Z,13.93
2023-05-16T16:25:52.429Z,11.30
2023-05-16T16:28:22.706Z,11.85
2023-05-16T16:34:14.780Z,13.30
2023-05-16T16:40:41.905Z,11.45
2023-05-16T16:43:10.407Z,13.65
2023-05-16T16:49:28.123Z,13.25
2023-05-16T16:51:59.313Z,16.67
2023-05-16T16:54:41.305Z,17.95
2023-05-16T17:03:45.254Z,15.68
2023-05-16T17:21:10.780Z,17.57
2023-05-16T17:28:05.244Z,18.82
2023-05-16T17:30:34.287Z,18.30
2023-05-16T17:33:09.118Z,17.17
2023-05-16T17:35:42.489Z,17.30
2023-05-16T17:38:11.740Z,17.40
2023-05-16T17:41:37.286Z,15.93
2023-05-16T17:44:18.669Z,18.00
2023-05-16T17:46:56.556Z,18.75
2023-05-16T17:49:28.831Z,18.87
2023-05-16T17:52:05.849Z,17.23
2023-05-16T17:54:58.412Z,16.95
2023-05-16T17:57:36.613Z,16.87
2023-05-16T18:00:41.079Z,15.78
2023-05-16T18:03:11.544Z,15.70
2023-05-16T18:05:44.646Z,15.50
2023-05-16T18:14:16.636Z,24.95
2023-05-16T18:24:06.372Z,17.07
2023-05-16T18:26:38.791Z,17.80
2023-05-16T18:29:09.316Z,17.37
2023-05-16T18:32:02.029Z,18.70
2023-05-16T18:34:34.490Z,18.75
2023-05-16T18:37:07.937Z,38.67
2023-05-16T18:39:52.487Z,20.02
2023-05-16T18:42:31.364Z,18.57
2023-05-16T18:48:00.094Z,25.90
2023-05-16T18:50:36.707Z,33.02
2023-05-16T18:53:26.382Z,63.48
2023-05-16T18:56:06.390Z,32.63
2023-05-16T18:58:35.835Z,50.38
2023-05-16T19:01:11.899Z,104.65
2023-05-16T19:03:44.011Z,53.92
2023-05-16T19:06:14.899Z,59.67
2023-05-16T19:08:47.886Z,123.92
2023-05-16T19:11:20.473Z,41.85
2023-05-16T19:13:49.417Z,30.27
2023-05-16T19:16:23.309Z,199.70
2023-05-16T19:18:52.533Z,83.20
2023-05-16T19:21:21.394Z,18.35
2023-05-16T19:23:50.283Z,62.88
2023-05-16T19:26:30.271Z,67.53
2023-05-16T19:28:58.911Z,23.15
2023-05-16T19:31:34.278Z,28.35
2023-05-16T19:35:02.345Z,207.55
2023-05-16T19:37:44.696Z,26.17
2023-05-16T19:40:17.079Z,246.45
2023-05-16T19:42:50.144Z,496.63
2023-05-16T19:45:20.701Z,396.25
2023-05-16T19:47:49.837Z,179.40
2023-05-16T19:50:29.978Z,161.18
2023-05-16T19:53:09.810Z,14.80
2023-05-16T19:56:24.325Z,18.50
2023-05-16T20:01:49.022Z,272.90
2023-05-16T20:04:21.631Z,120.00
2023-05-16T20:07:04.230Z,19.65
2023-05-16T20:09:33.522Z,205.83
2023-05-16T20:12:04.691Z,245.55
2023-05-16T20:14:39.703Z,250.60
2023-05-16T20:20:20.903Z,322.77
2023-05-16T20:22:49.787Z,35.08
2023-05-16T20:25:20.165Z,78.65
2023-05-16T20:27:51.462Z,34.33
2023-05-16T20:30:21.894Z,55.15
2023-05-16T20:33:11.435Z,15.25
2023-05-16T20:35:42.011Z,21.55
2023-05-16T20:38:16.771Z,60.35
2023-05-16T20:40:50.504Z,10.90
2023-05-16T20:43:32.188Z,11.10
2023-05-16T20:46:34.798Z,11.45
2023-05-16T20:49:06.770Z,11.53
2023-05-16T20:51:36.513Z,56.75
2023-05-16T20:54:05.378Z,88.35
2023-05-16T20:56:34.076Z,19.75
2023-05-16T20:59:05.719Z,79.82
2023-05-16T21:01:34.841Z,10.05
2023-05-16T21:04:05.785Z,11.18
2023-05-16T21:06:36.804Z,10.80
2023-05-16T21:09:20.129Z,12.00
2023-05-16T21:12:32.620Z,12.78
2023-05-16T21:15:02.913Z,28.27
2023-05-16T21:17:31.698Z,12.23
2023-05-16T21:20:00.521Z,12.20
2023-05-16T21:22:29.225Z,11.48
2023-05-16T21:24:57.910Z,11.80
2023-05-16T21:27:26.675Z,18.65
2023-05-16T21:29:56.052Z,13.98
2023-05-16T21:32:26.871Z,11.85
2023-05-16T21:34:55.600Z,12.45
2023-05-16T21:37:24.638Z,19.90
2023-05-16T21:39:53.276Z,41.20
2023-05-16T21:42:23.577Z,17.48
2023-05-16T21:44:53.757Z,12.65
2023-05-16T21:47:22.521Z,12.13
2023-05-16T21:49:51.379Z,28.65
2023-05-16T21:52:20.301Z,24.07
2023-05-16T21:54:50.790Z,53.52
2023-05-16T21:57:20.025Z,26.77
2023-05-16T21:59:50.782Z,28.42
2023-05-16T22:02:21.526Z,25.15
2023-05-16T22:04:54.786Z,13.72
2023-05-16T22:07:24.416Z,13.75
2023-05-16T22:09:54.225Z,14.53
2023-05-16T22:12:23.933Z,43.75
2023-05-16T22:14:52.970Z,41.42
2023-05-16T22:17:21.714Z,13.60
2023-05-16T22:19:50.429Z,15.38
2023-05-16T22:22:20.256Z,13.50
2023-05-16T22:24:48.981Z,19.07
2023-05-16T22:27:17.896Z,15.00
2023-05-16T22:29:46.573Z,14.20
2023-05-16T22:32:15.536Z,15.93
2023-05-16T22:35:23.102Z,14.30
2023-05-16T22:37:40.942Z,14.03
2023-05-16T22:40:34.013Z,13.80
2023-05-16T22:43:17.469Z,14.58
2023-05-16T22:45:46.364Z,22.67
2023-05-16T22:48:15.218Z,13.43
2023-05-16T22:50:44.293Z,13.35
2023-05-16T22:53:13.054Z,12.35
2023-05-16T22:56:01.491Z,12.20
2023-05-16T22:58:31.766Z,12.73
2023-05-16T23:01:02.799Z,19.98
2023-05-16T23:03:33.249Z,13.30
2023-05-16T23:06:02.345Z,13.75
2023-05-16T23:08:37.941Z,12.47
2023-05-16T23:11:06.156Z,12.88
2023-05-16T23:13:38.458Z,12.40
2023-05-16T23:16:09.850Z,12.43
2023-05-16T23:18:38.874Z,12.23
2023-05-16T23:21:09.712Z,12.63
2023-05-16T23:23:49.374Z,12.47
2023-05-16T23:26:17.887Z,12.35
2023-05-16T23:28:48.332Z,12.07
2023-05-16T23:31:22.574Z,12.15
2023-05-16T23:33:59.037Z,11.53
2023-05-16T23:36:33.657Z,12.13
2023-05-16T23:39:02.585Z,11.85
2023-05-16T23:41:31.545Z,12.73
2023-05-16T23:44:02.053Z,11.90
2023-05-16T23:46:30.958Z,12.35
2023-05-16T23:48:59.820Z,12.15
2023-05-16T23:51:34.733Z,12.65
2023-05-16T23:53:59.443Z,12.40
2023-05-16T23:56:28.245Z,12.45
2023-05-16T23:58:56.934Z,12.88
